Time;durP1;ratioP1;P1;durP2;ratioP2;P2;SDS_P1;SDS_P2;PMS_P1;PMS_P2;Temp;Humidity;BMP_temperature;BMP_pressure;BME280_temperature;BME280_humidity;BME280_pressure;Samples;Min_cycle;Max_cycle;Signal;HPM_P1;HPM_P2
2023/06/18 05:09:27;;;;;;;10.50;10.20;;;14.90;99.90;;;;;;5061771;28;20305;-85
2023/06/18 05:14:42;;;;;;;10.50;10.20;;;15.10;99.90;;;;;;5064186;28;20238;-85
2023/06/18 05:17:11;;;;;;;10.40;10.10;;;15.10;99.90;;;;;;5064285;28;20227;-86
2023/06/18 05:19:41;;;;;;;10.32;10.02;;;15.10;99.90;;;;;;5062906;28;20257;-86
2023/06/18 05:22:10;;;;;;;10.48;10.18;;;15.20;99.90;;;;;;5063418;28;20232;-84
2023/06/18 05:24:48;;;;;;;10.65;10.35;;;15.30;99.90;;;;;;5064097;28;20214;-83
2023/06/18 05:27:19;;;;;;;10.88;10.57;;;15.40;99.90;;;;;;5063688;28;20295;-83
2023/06/18 05:29:47;;;;;;;10.70;10.40;;;15.60;99.90;;;;;;5063980;28;20291;-84
2023/06/18 05:32:17;;;;;;;10.80;10.50;;;15.70;99.90;;;;;;5063788;28;20231;-83
2023/06/18 05:34:46;;;;;;;10.80;10.50;;;15.80;99.90;;;;;;5063299;28;20226;-84
2023/06/18 05:37:16;;;;;;;10.90;10.60;;;16.00;99.90;;;;;;5063757;28;20231;-84
2023/06/18 05:39:54;;;;;;;10.75;10.45;;;16.10;99.90;;;;;;5063814;28;20231;-84
2023/06/18 05:42:26;;;;;;;10.63;10.32;;;16.20;99.90;;;;;;5063500;28;20223;-84
2023/06/18 05:44:54;;;;;;;10.50;10.20;;;16.30;99.90;;;;;;5063704;28;20298;-84
2023/06/18 05:47:22;;;;;;;10.32;10.02;;;16.40;99.90;;;;;;5064377;28;20229;-84
2023/06/18 05:49:53;;;;;;;10.52;10.23;;;16.50;99.90;;;;;;5070259;28;20227;-83
2023/06/18 05:52:25;;;;;;;10.90;10.60;;;16.70;99.90;;;;;;5065730;28;20249;-84
2023/06/18 05:54:59;;;;;;;10.82;10.52;;;16.80;99.90;;;;;;5064998;28;20238;-84
2023/06/18 05:57:29;;;;;;;10.70;10.40;;;17.00;99.90;;;;;;5064705;28;20730;-84
2023/06/18 05:59:58;;;;;;;10.77;10.48;;;17.10;99.90;;;;;;5064011;28;20227;-84
2023/06/18 06:02:28;;;;;;;10.70;10.40;;;17.20;99.90;;;;;;5064027;28;20230;-84
2023/06/18 06:04:57;;;;;;;10.82;10.52;;;17.40;99.90;;;;;;5073200;28;20215;-80
2023/06/18 06:07:26;;;;;;;10.80;10.50;;;17.50;99.90;;;;;;5067183;28;20242;-83
2023/06/18 06:10:05;;;;;;;10.50;10.20;;;17.60;99.90;;;;;;5065077;28;20235;-79
2023/06/18 06:12:34;;;;;;;10.77;10.48;;;17.70;99.90;;;;;;5062721;28;20234;-80
2023/06/18 06:15:04;;;;;;;10.55;10.25;;;17.80;99.90;;;;;;5065892;28;20258;-79
2023/06/18 06:17:36;;;;;;;10.65;10.35;;;18.00;99.90;;;;;;5065527;28;20227;-81
2023/06/18 06:20:05;;;;;;;10.63;10.32;;;18.10;99.90;;;;;;5074814;28;20249;-82
2023/06/18 06:22:34;;;;;;;10.55;10.25;;;18.20;99.90;;;;;;5078921;28;20230;-80
2023/06/18 06:25:12;;;;;;;10.90;10.60;;;18.40;99.90;;;;;;5071453;28;20215;-82
2023/06/18 06:27:43;;;;;;;10.60;10.30;;;18.40;99.90;;;;;;5082705;28;20226;-78
2023/06/18 06:30:11;;;;;;;10.35;10.05;;;18.50;99.90;;;;;;5082457;28;20210;-79
2023/06/18 06:32:40;;;;;;;10.52;10.23;;;18.70;99.90;;;;;;5073502;28;20230;-84
2023/06/18 06:35:11;;;;;;;10.40;10.10;;;18.80;99.90;;;;;;5063613;28;20250;-81
2023/06/18 06:37:40;;;;;;;10.68;10.38;;;18.90;99.90;;;;;;5063233;28;20254;-83
2023/06/18 06:42:57;;;;;;;10.60;10.30;;;19.30;99.90;;;;;;5061730;28;20296;-82
2023/06/18 06:45:27;;;;;;;10.88;10.57;;;19.50;99.90;;;;;;5062921;28;20223;-82
2023/06/18 06:47:54;;;;;;;10.80;10.50;;;19.70;99.90;;;;;;5063696;28;20245;-80
2023/06/18 06:50:24;;;;;;;11.00;10.70;;;19.80;99.90;;;;;;5063028;28;20249;-82
2023/06/18 06:52:53;;;;;;;10.80;10.50;;;20.00;99.90;;;;;;5065493;28;20231;-80
2023/06/18 06:55:25;;;;;;;11.30;11.00;;;20.20;99.90;;;;;;5066580;28;20235;-80
2023/06/18 06:57:53;;;;;;;11.15;10.85;;;20.30;99.90;;;;;;5070287;28;20235;-80
2023/06/18 07:00:22;;;;;;;11.18;10.88;;;20.50;99.90;;;;;;5076351;28;20331;-80
2023/06/18 07:02:52;;;;;;;11.20;10.90;;;20.60;99.90;;;;;;5071107;28;20264;-84
2023/06/18 07:05:21;;;;;;;11.73;11.32;;;20.70;99.90;;;;;;5073158;28;20258;-81
2023/06/18 07:07:51;;;;;;;11.20;10.90;;;20.90;99.90;;;;;;5073063;28;20222;-81
2023/06/18 07:10:20;;;;;;;11.32;11.02;;;21.10;99.90;;;;;;5076300;28;20230;-78
2023/06/18 07:12:52;;;;;;;11.25;10.95;;;21.20;99.90;;;;;;5080016;28;20254;-79
2023/06/18 07:15:20;;;;;;;11.25;10.95;;;21.40;99.90;;;;;;5082926;28;20210;-82
2023/06/18 07:17:48;;;;;;;11.20;10.90;;;21.60;99.90;;;;;;5101318;28;20255;-80
2023/06/18 07:20:17;;;;;;;11.35;11.05;;;21.80;99.90;;;;;;5101386;28;20214;-81
2023/06/18 07:22:48;;;;;;;11.07;10.77;;;22.00;99.90;;;;;;5089588;28;20230;-80
2023/06/18 07:25:16;;;;;;;11.48;11.10;;;22.10;99.90;;;;;;5080117;28;20300;-78
2023/06/18 07:27:47;;;;;;;11.00;10.70;;;22.20;99.90;;;;;;5080086;28;20303;-79
2023/06/18 07:30:18;;;;;;;11.00;10.70;;;22.30;99.90;;;;;;5079123;28;20215;-77
2023/06/18 07:32:46;;;;;;;11.38;10.98;;;22.50;99.90;;;;;;5097567;28;20225;-77
2023/06/18 07:35:14;;;;;;;11.10;10.80;;;22.70;99.90;;;;;;5092946;28;20216;-77
2023/06/18 07:37:43;;;;;;;11.10;10.80;;;22.70;99.90;;;;;;5093491;28;20218;-82
2023/06/18 07:40:13;;;;;;;11.50;11.10;;;22.80;99.90;;;;;;5091914;28;20250;-81
2023/06/18 07:42:43;;;;;;;11.50;11.10;;;23.00;99.90;;;;;;5099269;28;20218;-78
2023/06/18 07:45:12;;;;;;;11.52;11.13;;;23.10;99.90;;;;;;5095540;28;20221;-82
2023/06/18 07:47:44;;;;;;;11.30;11.00;;;23.30;99.90;;;;;;5087332;28;20272;-80
2023/06/18 07:50:12;;;;;;;11.68;11.27;;;23.40;99.90;;;;;;5083741;28;20226;-81
2023/06/18 07:52:40;;;;;;;11.50;11.10;;;23.50;99.90;;;;;;5092038;28;20333;-81
2023/06/18 07:55:10;;;;;;;11.65;11.25;;;23.70;99.90;;;;;;5093123;28;20230;-80
2023/06/18 07:57:39;;;;;;;11.20;10.90;;;23.80;99.90;;;;;;5086128;28;20226;-81
2023/06/18 08:00:08;;;;;;;11.10;10.80;;;24.00;99.90;;;;;;5082310;28;20271;-81
2023/06/18 08:02:38;;;;;;;11.00;10.70;;;24.20;99.90;;;;;;5081857;28;20361;-82
2023/06/18 08:05:10;;;;;;;10.80;10.50;;;24.40;99.90;;;;;;5081424;28;20226;-81
2023/06/18 08:07:37;;;;;;;10.43;10.13;;;24.60;99.90;;;;;;5082027;28;20316;-81
2023/06/18 08:10:06;;;;;;;10.48;10.18;;;24.60;99.90;;;;;;5081111;28;20234;-80
2023/06/18 08:12:35;;;;;;;10.50;10.20;;;24.70;99.90;;;;;;5080112;28;20249;-81
2023/06/18 08:15:05;;;;;;;10.25;9.95;;;24.90;99.90;;;;;;5070085;28;20223;-82
2023/06/18 08:17:36;;;;;;;10.35;10.05;;;25.10;99.90;;;;;;5061897;28;20298;-81
2023/06/18 08:20:05;;;;;;;10.27;9.98;;;25.20;99.90;;;;;;5061185;28;20234;-81
2023/06/18 08:22:45;;;;;;;10.27;9.98;;;25.30;99.90;;;;;;5069897;28;20286;-80
2023/06/18 08:25:13;;;;;;;10.30;10.00;;;25.40;99.90;;;;;;5074412;28;20211;-80
2023/06/18 08:27:42;;;;;;;10.43;10.13;;;25.60;99.90;;;;;;5073633;28;20246;-82
2023/06/18 08:30:12;;;;;;;10.45;10.15;;;25.70;99.90;;;;;;5072807;28;20243;-81
2023/06/18 08:32:43;;;;;;;10.18;9.88;;;25.70;99.90;;;;;;5063330;28;21176;-83
2023/06/18 08:35:11;;;;;;;10.60;10.30;;;25.90;99.90;;;;;;5062357;28;20227;-82
2023/06/18 08:37:51;;;;;;;10.75;10.45;;;26.20;99.90;;;;;;5062182;28;20317;-83
2023/06/18 08:40:28;;;;;;;10.60;10.30;;;26.50;99.90;;;;;;5078368;28;20225;-79
2023/06/18 08:42:57;;;;;;;10.32;10.02;;;26.70;99.90;;;;;;5079415;28;20234;-82
2023/06/18 08:45:26;;;;;;;10.77;10.48;;;26.60;99.90;;;;;;5077581;28;20223;-78
2023/06/18 08:48:07;;;;;;;10.70;10.40;;;26.70;99.90;;;;;;5078354;28;20223;-83
2023/06/18 08:50:36;;;;;;;10.60;10.30;;;26.80;99.90;;;;;;5072115;28;20245;-78
2023/06/18 08:53:14;;;;;;;10.68;10.38;;;26.90;99.90;;;;;;5061957;28;20234;-81
2023/06/18 08:55:44;;;;;;;10.77;10.48;;;27.10;99.90;;;;;;5064689;28;20319;-83
2023/06/18 08:58:20;;;;;;;10.63;10.32;;;27.30;99.90;;;;;;5082642;28;20238;-82
2023/06/18 09:00:51;;;;;;;10.70;10.40;;;27.40;99.90;;;;;;5081382;28;20233;-81
2023/06/18 09:03:19;;;;;;;10.45;10.15;;;27.50;99.90;;;;;;5081590;28;20234;-82
2023/06/18 09:05:48;;;;;;;10.27;9.98;;;27.70;99.90;;;;;;5072623;28;20279;-81
2023/06/18 09:08:22;;;;;;;9.93;9.63;;;27.90;99.90;;;;;;5060413;28;20238;-82
2023/06/18 09:10:50;;;;;;;10.25;9.95;;;28.10;99.90;;;;;;5060100;28;20229;-80
2023/06/18 09:13:17;;;;;;;10.13;9.82;;;28.20;99.90;;;;;;5058935;28;20242;-81
2023/06/18 09:15:47;;;;;;;10.23;9.93;;;28.40;99.90;;;;;;5060518;28;20246;-82
2023/06/18 09:18:16;;;;;;;9.90;9.60;;;28.60;99.90;;;;;;5061493;28;20270;-83
2023/06/18 09:20:45;;;;;;;10.15;9.85;;;28.60;99.90;;;;;;5066638;28;20223;-82
2023/06/18 09:23:16;;;;;;;9.77;9.48;;;28.70;99.90;;;;;;5077183;28;20236;-80
2023/06/18 09:25:55;;;;;;;10.20;9.90;;;28.80;99.90;;;;;;5077152;28;20210;-80
2023/06/18 09:28:24;;;;;;;9.88;9.57;;;28.80;99.90;;;;;;5076461;28;20284;-79
2023/06/18 09:30:53;;;;;;;10.18;9.88;;;29.20;99.90;;;;;;5076786;28;20249;-79
2023/06/18 09:33:30;;;;;;;10.20;9.90;;;29.40;99.90;;;;;;5077219;28;20222;-78
2023/06/18 09:36:02;;;;;;;9.80;9.50;;;29.50;99.90;;;;;;5078652;28;20207;-79
2023/06/18 09:38:38;;;;;;;9.93;9.63;;;29.50;99.90;;;;;;5077826;28;20215;-79
2023/06/18 09:41:16;;;;;;;10.10;9.80;;;29.50;99.90;;;;;;5067028;28;20282;-80
2023/06/18 09:43:47;;;;;;;10.27;9.98;;;29.50;99.90;;;;;;5066603;28;20282;-81
2023/06/18 09:46:18;;;;;;;10.00;9.70;;;29.40;99.90;;;;;;5069552;28;20230;-82
2023/06/18 09:48:47;;;;;;;9.80;9.50;;;29.50;99.90;;;;;;5046528;28;20231;-83
2023/06/18 09:51:17;;;;;;;10.00;9.70;;;29.50;99.90;;;;;;5043213;28;20220;-82
2023/06/18 09:53:45;;;;;;;9.98;9.68;;;29.50;99.90;;;;;;5043302;28;20722;-82
2023/06/18 09:56:23;;;;;;;9.73;9.43;;;29.60;99.90;;;;;;5045306;28;20279;-83
2023/06/18 09:58:52;;;;;;;9.85;9.55;;;29.90;99.90;;;;;;5045371;28;20231;-83
2023/06/18 10:01:21;;;;;;;9.60;9.30;;;30.00;99.90;;;;;;5044953;28;20232;-84
2023/06/18 10:03:49;;;;;;;9.70;9.40;;;30.10;99.90;;;;;;5045170;28;20232;-85
2023/06/18 10:06:19;;;;;;;9.73;9.43;;;30.20;99.90;;;;;;5045045;28;20306;-82
2023/06/18 10:08:49;;;;;;;10.02;9.73;;;30.30;99.90;;;;;;5045884;28;20266;-84
2023/06/18 10:11:27;;;;;;;10.05;9.75;;;30.60;99.90;;;;;;5045558;28;20231;-85
2023/06/18 10:13:59;;;;;;;10.20;9.90;;;30.70;99.90;;;;;;5044431;28;20307;-84
2023/06/18 10:16:35;;;;;;;10.10;9.80;;;30.40;99.90;;;;;;5054778;28;20286;-82
2023/06/18 10:19:15;;;;;;;9.90;9.60;;;30.30;99.90;;;;;;5065727;28;20265;-82
2023/06/18 10:21:53;;;;;;;9.77;9.48;;;30.40;99.90;;;;;;5065105;28;20235;-84
2023/06/18 10:24:33;;;;;;;9.65;9.35;;;30.50;99.90;;;;;;5065203;28;20282;-83
2023/06/18 10:29:47;;;;;;;9.48;9.18;;;30.60;99.90;;;;;;5063837;28;20254;-83
2023/06/18 10:32:16;;;;;;;9.57;9.27;;;30.60;99.90;;;;;;5064910;28;20297;-84
2023/06/18 10:34:46;;;;;;;9.60;9.30;;;30.40;99.90;;;;;;5070928;28;20219;-84
2023/06/18 10:37:15;;;;;;;9.82;9.52;;;30.30;99.90;;;;;;5067111;28;20246;-85
2023/06/18 10:39:45;;;;;;;9.98;9.68;;;30.70;99.90;;;;;;5065879;28;20238;-83
2023/06/18 10:42:19;;;;;;;9.90;9.60;;;30.70;99.90;;;;;;5064836;28;20305;-83
2023/06/18 10:44:57;;;;;;;10.18;9.88;;;30.70;99.90;;;;;;5064892;28;20314;-83
2023/06/18 10:47:32;;;;;;;10.27;9.98;;;30.40;99.90;;;;;;5065144;28;20234;-82
2023/06/18 10:50:17;;;;;;;10.10;9.80;;;30.70;99.90;;;;;;5063881;28;20246;-84
2023/06/18 10:52:50;;;;;;;9.90;9.60;;;30.90;99.90;;;;;;5064309;28;20246;-82
2023/06/18 10:55:35;;;;;;;9.73;9.43;;;31.30;99.90;;;;;;5076455;28;20223;-81
2023/06/18 10:58:15;;;;;;;9.77;9.48;;;31.50;99.90;;;;;;5081574;28;20219;-83
2023/06/18 11:00:44;;;;;;;9.95;9.65;;;31.40;99.90;;;;;;5081770;28;20223;-81
2023/06/18 11:03:22;;;;;;;9.55;9.25;;;31.40;99.90;;;;;;5074025;28;20241;-83
2023/06/18 11:05:51;;;;;;;9.65;9.35;;;31.40;99.90;;;;;;5061779;28;20230;-85
2023/06/18 11:08:28;;;;;;;9.70;9.40;;;31.50;99.90;;;;;;5062911;28;20258;-83
2023/06/18 11:11:07;;;;;;;9.80;9.50;;;31.50;99.90;;;;;;5062027;28;20222;-83
2023/06/18 11:16:42;;;;;;;9.75;9.45;;;31.40;99.90;;;;;;5103183;22;20230;-91
2023/06/18 11:19:21;;;;;;;9.63;9.32;;;31.60;99.90;;;;;;5074562;28;20219;-90
2023/06/18 11:22:06;;;;;;;9.68;9.38;;;31.70;99.90;;;;;;5083047;28;20238;-89
2023/06/18 11:24:36;;;;;;;9.85;9.55;;;32.00;99.90;;;;;;5083038;28;20226;-84
2023/06/18 11:27:16;;;;;;;10.00;9.70;;;31.80;99.90;;;;;;5084079;28;20233;-91
2023/06/18 11:34:00;;;;;;;9.95;9.65;;;31.50;99.10;;;;;;5081339;28;20226;-90
2023/06/18 11:48:32;;;;;;;10.00;9.70;;;33.00;99.40;;;;;;5072942;28;20226;-91
2023/06/18 11:51:07;;;;;;;10.10;9.80;;;32.80;97.90;;;;;;5071065;28;20294;-90
2023/06/18 11:57:42;;;;;;;10.43;10.13;;;32.60;99.90;;;;;;4982903;28;20228;-88
2023/06/18 12:00:27;;;;;;;10.43;10.13;;;33.00;99.50;;;;;;5065376;28;20284;-91
2023/06/18 12:02:58;;;;;;;10.50;10.20;;;33.40;98.60;;;;;;5066250;28;20252;-87
2023/06/18 12:06:21;;;;;;;10.65;10.35;;;33.80;99.20;;;;;;5061167;28;20238;-90
2023/06/18 12:09:35;;;;;;;10.57;10.27;;;33.90;97.30;;;;;;5049651;28;20224;-89
2023/06/18 12:52:17;;;;;;;10.55;10.25;;;33.80;91.80;;;;;;5058521;28;20249;-86
2023/06/18 14:37:45;;;;;;;9.73;9.43;;;35.10;86.10;;;;;;1744311;23;20498;31
2023/06/18 15:48:58;;;;;;;10.40;10.10;;;36.00;85.90;;;;;;4949275;29;20247;-91
2023/06/18 15:52:17;;;;;;;10.40;10.10;;;36.10;82.30;;;;;;4938384;29;20265;-91
2023/06/18 15:54:50;;;;;;;10.35;10.05;;;36.20;88.50;;;;;;4941814;29;20261;-88
2023/06/18 17:06:15;;;;;;;10.00;9.70;;;36.00;81.00;;;;;;4942421;29;20243;-89
2023/06/18 17:38:00;;;;;;;10.10;9.80;;;35.70;81.50;;;;;;6233351;22;20197;-87
2023/06/18 18:18:47;;;;;;;10.20;9.90;;;34.60;83.60;;;;;;6330257;22;20276;-87
2023/06/18 18:24:51;;;;;;;10.00;9.70;;;34.10;82.80;;;;;;6176151;22;20214;-85
2023/06/18 19:47:59;;;;;;;9.98;9.68;;;27.50;92.60;;;;;;6259204;22;20190;-89
2023/06/18 21:23:42;;;;;;;10.20;9.90;;;24.30;99.90;;;;;;6260720;22;20209;-86
2023/06/18 21:29:51;;;;;;;10.23;9.93;;;24.10;99.90;;;;;;6151567;23;20199;-88
2023/06/18 21:32:31;;;;;;;9.95;9.65;;;24.00;99.90;;;;;;6229879;22;20213;-88
2023/06/18 21:36:16;;;;;;;10.00;9.70;;;23.90;99.90;;;;;;6227463;23;20201;-86
2023/06/18 21:53:01;;;;;;;10.32;10.02;;;23.50;99.90;;;;;;6258989;22;20198;-87
2023/06/18 21:59:22;;;;;;;10.52;10.23;;;23.40;99.90;;;;;;6253846;22;20197;-88
2023/06/18 22:01:54;;;;;;;10.60;10.30;;;23.30;99.90;;;;;;6258814;22;20221;-84
2023/06/18 22:04:23;;;;;;;10.75;10.45;;;23.30;99.90;;;;;;6262037;22;20209;-84
2023/06/18 22:07:05;;;;;;;10.57;10.27;;;23.20;99.90;;;;;;6261010;22;20238;-84
2023/06/18 22:09:32;;;;;;;10.70;10.40;;;23.10;99.90;;;;;;6261814;22;20217;-84
2023/06/18 22:12:00;;;;;;;10.70;10.40;;;23.10;99.90;;;;;;6262057;22;20218;-84
2023/06/18 22:14:30;;;;;;;10.63;10.32;;;23.10;99.90;;;;;;6263147;22;20209;-84
2023/06/18 22:17:02;;;;;;;10.50;10.20;;;23.00;99.90;;;;;;6263252;22;20289;-85
2023/06/18 22:19:34;;;;;;;10.35;10.05;;;23.00;99.90;;;;;;6286988;22;20258;-86
2023/06/18 22:22:09;;;;;;;10.60;10.30;;;22.90;99.90;;;;;;6313625;22;20170;-88
2023/06/18 22:24:38;;;;;;;10.57;10.27;;;22.90;99.90;;;;;;6310298;22;20216;-88
2023/06/18 22:27:11;;;;;;;10.27;9.98;;;22.90;99.90;;;;;;6300042;22;20244;-88
2023/06/18 22:29:39;;;;;;;10.45;10.15;;;22.80;99.90;;;;;;6292512;22;20212;-88
2023/06/18 22:32:08;;;;;;;10.25;9.95;;;22.80;99.90;;;;;;6292407;22;20208;-87
2023/06/18 22:34:36;;;;;;;10.60;10.30;;;22.80;99.90;;;;;;6291710;22;20221;-88
2023/06/18 22:37:15;;;;;;;10.45;10.15;;;22.70;99.90;;;;;;6291440;22;20190;-87
2023/06/18 22:39:44;;;;;;;10.60;10.30;;;22.70;99.90;;;;;;6291235;22;20206;-87
2023/06/18 22:42:14;;;;;;;10.30;10.00;;;22.70;99.90;;;;;;6290872;22;20678;-88
2023/06/18 22:44:43;;;;;;;10.52;10.23;;;22.70;99.90;;;;;;6291281;22;20209;-88
2023/06/18 22:47:13;;;;;;;10.43;10.13;;;22.70;99.90;;;;;;6291331;22;20281;-88
2023/06/18 22:49:41;;;;;;;10.50;10.20;;;22.70;99.90;;;;;;6291058;22;20208;-87
2023/06/18 22:52:14;;;;;;;10.35;10.05;;;22.60;99.90;;;;;;6292391;22;20193;-87
2023/06/18 22:54:42;;;;;;;10.43;10.13;;;22.60;99.90;;;;;;6290819;22;20224;-87
2023/06/18 22:57:10;;;;;;;10.48;10.18;;;22.60;99.90;;;;;;6292918;22;20296;-88
2023/06/18 22:59:42;;;;;;;10.50;10.20;;;22.60;99.90;;;;;;6292709;22;20205;-87
2023/06/18 23:02:09;;;;;;;10.55;10.25;;;22.60;99.90;;;;;;6290528;22;20220;-87
2023/06/18 23:04:39;;;;;;;10.48;10.18;;;22.50;99.90;;;;;;6291052;22;20252;-87
2023/06/18 23:07:11;;;;;;;10.52;10.23;;;22.50;99.90;;;;;;6290961;22;20234;-87
2023/06/18 23:09:38;;;;;;;10.50;10.20;;;22.50;99.90;;;;;;6289939;22;20197;-87
2023/06/18 23:12:08;;;;;;;10.57;10.27;;;22.40;99.90;;;;;;6290506;22;20229;-87
2023/06/18 23:14:36;;;;;;;10.35;10.05;;;22.40;99.90;;;;;;6290513;22;20190;-87
2023/06/18 23:17:05;;;;;;;10.50;10.20;;;22.30;99.90;;;;;;6290863;22;20194;-88
2023/06/18 23:19:35;;;;;;;10.50;10.20;;;22.30;99.90;;;;;;6290645;22;20205;-87
2023/06/18 23:22:05;;;;;;;10.50;10.20;;;22.20;99.90;;;;;;6291702;22;20190;-88
2023/06/18 23:24:44;;;;;;;10.40;10.10;;;22.10;99.90;;;;;;6291834;22;20197;-87
2023/06/18 23:27:12;;;;;;;10.70;10.40;;;22.10;99.90;;;;;;6290975;22;20196;-87
2023/06/18 23:29:41;;;;;;;10.55;10.25;;;22.10;99.90;;;;;;6290709;22;20201;-88
2023/06/18 23:32:10;;;;;;;10.40;10.10;;;22.10;99.90;;;;;;6291919;22;20741;-87
2023/06/18 23:34:41;;;;;;;10.45;10.15;;;22.10;99.90;;;;;;6290406;22;20200;-87
2023/06/18 23:37:12;;;;;;;10.50;10.20;;;22.10;99.90;;;;;;6290969;22;20205;-87
2023/06/18 23:42:26;;;;;;;10.50;10.20;;;22.00;99.90;;;;;;6289773;22;20201;-88
2023/06/18 23:44:55;;;;;;;10.60;10.30;;;22.00;99.90;;;;;;6291845;22;20206;-87
2023/06/18 23:47:27;;;;;;;10.40;10.10;;;22.00;99.90;;;;;;6305137;22;20209;-87
2023/06/18 23:49:55;;;;;;;10.38;10.07;;;22.10;99.90;;;;;;6311339;22;20193;-87
2023/06/18 23:52:23;;;;;;;10.40;10.10;;;22.10;99.90;;;;;;6311549;22;20197;-86
2023/06/18 23:55:04;;;;;;;10.55;10.25;;;22.00;99.90;;;;;;6312334;22;20197;-85
2023/06/18 23:57:34;;;;;;;10.30;10.00;;;22.00;99.90;;;;;;6311148;22;20188;-85
